x

Portland 12 Nm Southeast Of Portland,me (44007) Wave Buoy

5:50 - Fri 27th May 2016 All times are EDT. -4 hours from GMT.

  • Sig Wave height 2.3ft
  • Swell Direction
  • Peak Period 8s
  • Average Period 4s
  • Wind
    16mph, 18mph gusts
  • Sea Temp 52°f
  • Luft Temp 54°f
  • Sea Pressure 1020.8mb
  • Portland 12 Nm Southeast Of Portland,me
  • Portland 12 Nm Southeast Of Portland,me

More Historic Weather Station data

Upgrade to MSW Pro to gain access to the past 30 days of data for over 8000 Wavebouys and Weather Stations around the globe.

Join Pro

Comparision Forecast

View Surf forecast
   
Fr 05/27 5:50 2.5ft 8s 4s 16 18 mph 1020.8mb 52f 54f
4:50 2.5ft 8s 4s 13 16 mph 1020.9mb 52f 54f
3:50 2ft 7s 5s 11
mph
1020.8mb 52f 54f
2:50 2ft 7s 5s 9 11 mph 1021mb 53f 54f
1:50 2ft 8s 5s 9
mph
1020.7mb 53f 56f
12:50 2ft 7s 5s 7 9 mph 1021mb 53f 55f
Do 05/26 11:50 2ft 8s 5s 4 7 mph 1020.9mb 54f 57f
10:50 1.6ft 8s 5s 4 7 mph 1020.4mb 53f 55f
9:50 1.6ft 8s 5s 4
mph
1020.1mb 53f 55f
8:50 2ft 8s 6s 2 4 mph 1019.4mb 53f 56f
6:50 2ft 6s 5s 7 9 mph 1019.2mb 54f 56f
5:50 2ft 6s 6s 4 7 mph 1018.4mb 54f 57f
4:50 2ft 7s 6s 7 9 mph 1018.3mb 54f 57f
3:50 2.5ft 7s 6s 9 11 mph 1018.1mb 53f 58f
2:50 2.5ft 7s 6s 9 11 mph 1018mb 53f 57f
1:50 2.5ft 7s 7s 9 11 mph 1018mb 54f 58f
12:50 2.5ft 7s 7s 9
mph
1018.2mb 54f 58f
11:50 2.5ft 7s 6s 7 9 mph 1018.6mb 55f 65f
10:50 2.5ft 8s 7s 7
mph
1018.6mb 55f 61f
9:50 2.5ft 9s 7s 4 7 mph 1018.6mb 54f 59f
8:50 2.5ft 8s 6s 7
mph
1018.9mb 52f 58f
7:50 2.5ft 8s 6s 7
mph
1018.9mb 51f 56f
6:50 2.5ft 9s 6s 9 11 mph 1018.4mb 51f 56f
5:50 2.5ft 8s 6s 4
mph
1017.3mb 51f 58f
4:50 2.5ft 8s 6s 2 4 mph 1016.7mb 51f 57f
3:50 2.5ft 7s 6s  -  4 mph 1015.8mb 51f 56f
2:50 2.5ft 8s 6s 4 7 mph 1015.1mb 51f 56f
1:50 3ft 7s 6s 7 9 mph 1014.5mb 51f 56f
12:50 3ft 7s 6s 9
mph
1014.4mb 51f 54f
Mi 05/25 11:50 3ft 8s 6s 2 4 mph 1014.6mb 51f 53f
10:50 3ft 7s 6s 4 7 mph 1014.7mb 51f 52f
9:50 3ft 8s 6s 11 16 mph 1015mb 51f 52f
8:50 2.5ft 8s 6s 7 9 mph 1013.8mb 51f 53f
7:50 3ft 8s 6s 4
mph
1013.4mb 51f 53f
6:50 2.5ft 8s 5s 2
mph
1013.6mb 51f 54f
5:50 2.5ft 8s 5s 7 9 mph 1013.7mb 51f 54f
4:50 2.5ft 8s 6s 4 7 mph 1013.4mb 51f 53f
3:50 3ft 8s 6s 9 11 mph 1013.4mb 51f 52f
2:50 3ft 8s 5s 11 13 mph 1013.4mb 51f 52f
1:50 3.5ft 8s 6s 11 13 mph 1013.8mb 51f 52f
12:50 3.5ft 8s 6s 13 16 mph 1014.2mb 51f 52f
11:50 3.5ft 8s 7s 13 16 mph 1015mb 51f 51f
10:50 3ft 8s 6s 9 11 mph 1015.3mb 51f 51f
9:50 3ft 8s 7s 9 11 mph 1015.4mb 51f 51f
8:50 2.5ft 8s 7s 11 13 mph 1015.6mb 50f 50f
7:50 2.5ft 8s 7s 11 13 mph 1015.4mb 50f 50f
6:50 2.5ft 9s 7s 4 7 mph 1015.1mb 50f 50f
5:50 2.5ft 8s 6s 4
mph
1014.9mb 50f 50f
4:50 2.5ft 9s 6s 7 9 mph 1014.5mb 51f 50f
3:50 3ft 7s 6s 2
mph
1014.4mb 50f 50f
2:50 3.5ft 8s 6s 4
mph
1014.7mb 50f 50f
1:50 3.5ft 8s 6s  -  2 mph 1014.3mb 50f 50f
12:50 3.5ft 8s 6s 4 7 mph 1014.8mb 50f 50f
Di 05/24 11:50 3.5ft 8s 6s 9 11 mph 1014.6mb 50f 50f
10:50 4ft 8s 6s 4 7 mph 1015mb 50f 50f
9:50 3.5ft 8s 6s 7 9 mph 1014.9mb 50f 50f
8:50 4ft 8s 6s 9
mph
1014.9mb 50f 50f
7:50 3.5ft 8s 6s 11 13 mph 1014.6mb 50f 50f
6:50 3.5ft 9s 5s 11 13 mph 1014.3mb 51f 50f
5:50 3.5ft 9s 5s 13 16 mph 1014.2mb 51f 50f
4:50 3.5ft 8s 5s 13 16 mph 1014.3mb 51f 50f
3:50 3.5ft 9s 5s 13 16 mph 1014.3mb 51f 49f
2:50 4ft 10s 5s 13 16 mph 1014.8mb 51f 49f
1:50 4ft 7s 5s 16 18 mph 1014.4mb 50f 49f
12:50 4ft 4s 5s 16 20 mph 1014.4mb 51f 50f
11:50 4ft 10s 5s 18 20 mph 1014.4mb 51f 50f
10:50 4ft 8s 5s 16 20 mph 1014.2mb 50f 50f
9:50 4.5ft 9s 6s 16 18 mph 1014.1mb 50f 50f
8:50 4ft 9s 6s 13 18 mph 1014.1mb 49f 50f
7:50 4.5ft 9s 7s 11 13 mph 1014.7mb 49f 50f
6:50 4.5ft 9s 7s 13 16 mph 1014.3mb 49f 51f
5:50 3.5ft 10s 7s 13
mph
1014.2mb 49f 51f
4:50 3ft 9s 7s 16 18 mph 1013.9mb 50f 52f
3:50 3.5ft 10s 7s 11 13 mph 1013.3mb 50f 52f
2:50 3ft 10s 7s 9 11 mph 1013.6mb 51f 51f
1:50 3.5ft 11s 8s 7
mph
1014mb 51f 52f
12:50 4ft 10s 8s 11
mph
1013.8mb 52f 52f
Mo 05/23 11:50 4.5ft 8s 8s 7 9 mph 1014.1mb 52f 52f
10:50 4.5ft 8s 8s 4 7 mph 1014.1mb 52f 53f
9:50 4.5ft 9s 8s 4
mph
1014mb 52f 53f
8:50 5ft 11s 8s 2
mph
1013.5mb 53f 53f
6:50 4.5ft 8s 8s 11 13 mph 1012.6mb 54f 56f
5:50 4.5ft 10s 8s 9 11 mph 1011.9mb 55f 57f
4:50 4ft 10s 8s 9
mph
1011.5mb 55f 57f
3:50 4.5ft 10s 8s 9
mph
1011.5mb 56f 59f
2:50 4ft 10s 8s 7 9 mph 1011.5mb 57f 60f
1:50 4ft 10s 8s 7
mph
1011.8mb 55f 60f
12:50 4ft 8s 8s 7 9 mph 1012.3mb 54f 62f
11:50 4.5ft 8s 7s 2 4 mph 1012.6mb 50f 61f
10:50 5ft 10s 8s 2 4 mph 1012.7mb 51f 59f